createdAt,value
2018-03-01T00:01:44.310Z,73.85
2018-03-01T00:04:12.043Z,73.88
2018-03-01T00:06:39.977Z,73.80
2018-03-01T00:09:08.166Z,73.85
2018-03-01T00:11:35.771Z,73.87
2018-03-01T00:14:03.363Z,73.69
2018-03-01T00:16:30.941Z,73.59
2018-03-01T00:18:58.579Z,73.41
2018-03-01T00:21:26.906Z,73.22
2018-03-01T00:23:54.509Z,73.47
2018-03-01T00:26:22.079Z,73.36
2018-03-01T00:28:49.653Z,73.54
2018-03-01T00:31:17.310Z,73.62
2018-03-01T00:33:44.992Z,73.59
2018-03-01T00:36:12.822Z,73.42
2018-03-01T00:38:40.417Z,73.34
2018-03-01T00:41:08.639Z,73.49
2018-03-01T00:43:36.306Z,73.31
2018-03-01T00:46:03.875Z,73.26
2018-03-01T00:48:31.461Z,73.20
2018-03-01T00:50:59.063Z,73.17
2018-03-01T00:53:26.684Z,73.01
2018-03-01T00:55:54.278Z,73.11
2018-03-01T00:58:21.874Z,73.15
2018-03-01T01:00:49.466Z,73.06
2018-03-01T01:03:17.185Z,72.89
2018-03-01T01:05:44.843Z,73.29
2018-03-01T01:08:12.599Z,73.64
2018-03-01T01:10:40.173Z,74.21
2018-03-01T01:13:08.243Z,74.68
2018-03-01T01:15:35.822Z,75.10
2018-03-01T01:18:03.656Z,76.07
2018-03-01T01:20:31.253Z,76.93
2018-03-01T01:22:58.826Z,77.09
2018-03-01T01:25:26.708Z,76.97
2018-03-01T01:27:54.327Z,76.03
2018-03-01T01:30:21.905Z,75.91
2018-03-01T01:32:49.490Z,74.63
2018-03-01T01:35:17.478Z,73.91
2018-03-01T01:37:45.502Z,73.21
2018-03-01T01:40:13.081Z,73.11
2018-03-01T01:42:40.714Z,73.01
2018-03-01T01:45:10.732Z,72.96
2018-03-01T01:47:38.646Z,72.96
2018-03-01T01:50:06.305Z,73.30
2018-03-01T01:52:33.890Z,73.19
2018-03-01T01:55:01.472Z,73.34
2018-03-01T01:57:29.375Z,73.36
2018-03-01T01:59:57.017Z,73.40
2018-03-01T02:02:24.593Z,73.60
2018-03-01T02:04:52.224Z,73.59
2018-03-01T02:07:20.065Z,73.56
2018-03-01T02:09:47.699Z,73.82
2018-03-01T02:12:15.348Z,73.74
2018-03-01T02:14:43.011Z,74.09
2018-03-01T02:17:12.961Z,74.50
2018-03-01T02:19:40.557Z,74.32
2018-03-01T02:22:08.441Z,74.07
2018-03-01T02:24:36.113Z,74.07
2018-03-01T02:27:04.199Z,73.92
2018-03-01T02:29:32.141Z,73.88
2018-03-01T02:31:59.712Z,74.01
2018-03-01T02:34:27.291Z,73.82
2018-03-01T02:36:54.884Z,74.16
2018-03-01T02:39:22.460Z,74.23
2018-03-01T02:41:50.028Z,74.42
2018-03-01T02:44:17.624Z,74.29
2018-03-01T02:46:45.231Z,74.30
2018-03-01T02:49:12.935Z,74.42
2018-03-01T02:51:41.049Z,74.43
2018-03-01T02:54:09.186Z,74.59
2018-03-01T02:56:36.807Z,74.58
2018-03-01T02:59:04.408Z,74.47
2018-03-01T03:01:32.124Z,74.37
2018-03-01T03:03:59.999Z,74.38
2018-03-01T03:06:27.576Z,74.40
2018-03-01T03:08:56.271Z,74.38
2018-03-01T03:11:23.952Z,74.27
2018-03-01T03:13:53.094Z,74.44
2018-03-01T03:16:20.700Z,74.35
2018-03-01T03:18:48.269Z,74.43
2018-03-01T03:21:16.108Z,74.43
2018-03-01T03:23:44.094Z,74.49
2018-03-01T03:26:14.559Z,74.46
2018-03-01T03:28:43.488Z,74.71
2018-03-01T03:31:14.185Z,74.65
2018-03-01T03:33:41.862Z,74.59
2018-03-01T03:36:09.840Z,74.50
2018-03-01T03:38:37.461Z,74.34
2018-03-01T03:41:05.169Z,74.46
2018-03-01T03:43:32.895Z,74.48
2018-03-01T03:46:00.952Z,74.61
2018-03-01T03:48:38.466Z,74.37
2018-03-01T03:51:06.054Z,74.40
2018-03-01T03:53:37.155Z,74.55
2018-03-01T03:56:04.863Z,74.55
2018-03-01T03:58:32.430Z,74.78
2018-03-01T04:01:00.060Z,74.83
2018-03-01T04:03:27.689Z,74.97
2018-03-01T04:05:55.270Z,75.01
2018-03-01T04:08:22.855Z,74.91
2018-03-01T04:10:50.456Z,74.86
2018-03-01T04:13:19.065Z,75.23
2018-03-01T04:15:46.650Z,74.84
2018-03-01T04:18:14.247Z,74.88
2018-03-01T04:20:41.861Z,74.65
2018-03-01T04:23:10.289Z,74.86
2018-03-01T04:25:38.030Z,74.94
2018-03-01T04:28:08.640Z,74.95
2018-03-01T04:30:37.052Z,75.01
2018-03-01T04:33:05.158Z,74.78
2018-03-01T04:38:05.100Z,74.82
2018-03-01T04:40:32.727Z,74.60
2018-03-01T04:43:00.326Z,75.13
2018-03-01T04:45:30.425Z,74.89
2018-03-01T04:47:58.055Z,75.18
2018-03-01T04:50:25.660Z,75.68
2018-03-01T04:52:53.246Z,75.55
2018-03-01T04:55:21.183Z,75.33
2018-03-01T04:57:48.945Z,74.87
2018-03-01T05:00:16.545Z,75.22
2018-03-01T05:02:44.132Z,75.36
2018-03-01T05:05:12.197Z,75.07
2018-03-01T05:07:40.553Z,75.25
2018-03-01T05:10:08.165Z,75.36
2018-03-01T05:12:35.760Z,75.35
2018-03-01T05:15:03.429Z,75.20
2018-03-01T05:17:32.432Z,75.33
2018-03-01T05:20:00.044Z,75.27
2018-03-01T05:22:27.660Z,75.43
2018-03-01T05:24:55.240Z,75.49
2018-03-01T05:27:22.848Z,75.63
2018-03-01T05:29:50.449Z,75.25
2018-03-01T05:32:18.025Z,75.05
2018-03-01T05:34:45.693Z,74.76
2018-03-01T05:37:13.347Z,74.91
2018-03-01T05:39:40.987Z,74.88
2018-03-01T05:42:08.587Z,74.56
2018-03-01T05:44:36.218Z,74.91
2018-03-01T05:47:03.856Z,74.75
2018-03-01T05:49:32.666Z,74.68
2018-03-01T05:52:00.264Z,75.14
2018-03-01T05:54:27.903Z,75.36
2018-03-01T05:56:55.495Z,75.30
2018-03-01T05:59:23.611Z,75.11
2018-03-01T06:01:51.967Z,74.71
2018-03-01T06:04:19.770Z,74.75
2018-03-01T06:06:47.486Z,74.58
2018-03-01T06:09:15.758Z,74.79
2018-03-01T06:11:43.372Z,74.07
2018-03-01T06:14:10.939Z,74.24
2018-03-01T06:16:38.528Z,74.07
2018-03-01T06:19:07.273Z,73.30
2018-03-01T06:21:35.216Z,72.72
2018-03-01T06:24:02.886Z,72.70
2018-03-01T06:26:30.479Z,72.54
2018-03-01T06:28:58.036Z,72.58
2018-03-01T06:31:25.644Z,72.43
2018-03-01T06:33:53.274Z,73.36
2018-03-01T06:36:20.869Z,73.18
2018-03-01T06:38:48.496Z,73.76
2018-03-01T06:41:16.467Z,73.55
2018-03-01T06:43:44.048Z,73.15
2018-03-01T06:46:11.910Z,72.86
2018-03-01T06:48:39.504Z,72.85
2018-03-01T06:51:07.926Z,72.52
2018-03-01T06:53:35.506Z,72.17
2018-03-01T06:56:03.069Z,72.66
2018-03-01T06:58:30.681Z,71.93
2018-03-01T07:00:59.166Z,72.15
2018-03-01T07:03:26.759Z,71.63
2018-03-01T07:05:54.353Z,71.36
2018-03-01T07:08:24.227Z,71.67
2018-03-01T07:10:56.211Z,70.92
2018-03-01T07:13:27.059Z,71.45
2018-03-01T07:15:54.861Z,71.34
2018-03-01T07:18:22.926Z,71.29
2018-03-01T07:20:50.985Z,71.03
2018-03-01T07:23:21.297Z,69.85
2018-03-01T07:25:49.701Z,69.72
2018-03-01T07:28:18.264Z,69.34
2018-03-01T07:30:45.832Z,68.03
2018-03-01T07:33:14.947Z,68.42
2018-03-01T07:38:19.352Z,68.08
2018-03-01T07:40:48.206Z,67.78
2018-03-01T07:43:16.309Z,67.13
2018-03-01T07:45:43.913Z,67.40
2018-03-01T07:48:11.556Z,67.52
2018-03-01T07:50:39.222Z,66.78
2018-03-01T07:53:07.260Z,67.30
2018-03-01T07:55:34.823Z,67.27
2018-03-01T07:58:02.419Z,66.12
2018-03-01T08:00:31.434Z,66.02
2018-03-01T08:02:59.087Z,67.01
2018-03-01T08:05:26.941Z,66.96
2018-03-01T08:07:54.566Z,67.97
2018-03-01T08:10:22.139Z,66.48
2018-03-01T08:12:50.164Z,66.71
2018-03-01T08:15:18.241Z,65.92
2018-03-01T08:17:45.828Z,65.87
2018-03-01T08:20:13.569Z,65.72
2018-03-01T08:22:41.160Z,65.90
2018-03-01T08:25:08.753Z,66.19
2018-03-01T08:27:36.316Z,65.97
2018-03-01T08:30:03.952Z,65.97
2018-03-01T08:32:31.566Z,65.95
2018-03-01T08:34:59.149Z,65.85
2018-03-01T08:37:29.368Z,66.06
2018-03-01T08:39:56.997Z,65.53
2018-03-01T08:42:24.887Z,66.05
2018-03-01T08:44:52.465Z,64.90
2018-03-01T08:47:20.074Z,65.08
2018-03-01T08:49:47.681Z,64.35
2018-03-01T08:52:15.677Z,64.77
2018-03-01T08:54:43.269Z,65.13
2018-03-01T08:57:11.847Z,65.68
2018-03-01T08:59:39.436Z,65.42
2018-03-01T09:02:07.005Z,64.77
2018-03-01T09:04:34.597Z,65.04
2018-03-01T09:07:02.209Z,66.00
2018-03-01T09:09:30.697Z,64.45
2018-03-01T09:11:58.301Z,64.08
2018-03-01T09:14:25.960Z,63.95
2018-03-01T09:16:53.572Z,63.30
2018-03-01T09:19:21.902Z,64.04
2018-03-01T09:21:49.900Z,63.38
2018-03-01T09:24:17.461Z,62.67
2018-03-01T09:26:45.067Z,62.69
2018-03-01T09:29:13.148Z,62.87
2018-03-01T09:31:40.741Z,62.76
2018-03-01T09:34:09.286Z,62.63
2018-03-01T09:36:37.145Z,63.68
2018-03-01T09:39:04.810Z,62.81
2018-03-01T09:41:32.365Z,62.88
2018-03-01T09:43:59.955Z,62.98
2018-03-01T09:46:27.560Z,62.84
2018-03-01T09:48:55.149Z,64.41
2018-03-01T09:51:23.111Z,62.70
2018-03-01T09:53:50.770Z,62.81
2018-03-01T09:56:18.337Z,61.63
2018-03-01T09:58:46.762Z,61.72
2018-03-01T10:01:14.381Z,60.75
2018-03-01T10:03:41.945Z,60.46
2018-03-01T10:06:09.538Z,59.49
2018-03-01T10:08:37.129Z,58.10
2018-03-01T10:11:04.877Z,58.39
2018-03-01T10:13:32.480Z,58.25
2018-03-01T10:16:01.361Z,57.51
2018-03-01T10:18:29.067Z,58.03
2018-03-01T10:20:56.625Z,57.04
2018-03-01T10:23:24.630Z,57.16
2018-03-01T10:25:52.305Z,58.39
2018-03-01T10:28:19.871Z,57.82
2018-03-01T10:30:47.481Z,58.22
2018-03-01T10:33:19.841Z,57.14
2018-03-01T10:35:55.962Z,57.29
2018-03-01T10:38:24.056Z,56.98
2018-03-01T10:40:53.035Z,57.58
2018-03-01T10:43:21.336Z,58.09
2018-03-01T10:45:48.921Z,58.08
2018-03-01T10:48:16.542Z,55.90
2018-03-01T10:50:44.199Z,57.02
2018-03-01T10:53:13.154Z,56.31
2018-03-01T10:55:40.742Z,57.51
2018-03-01T10:58:08.351Z,57.38
2018-03-01T11:00:41.557Z,56.25
2018-03-01T11:03:09.261Z,55.68
2018-03-01T11:05:37.338Z,56.56
2018-03-01T11:08:05.409Z,56.73
2018-03-01T11:10:33.129Z,57.40
2018-03-01T11:13:00.751Z,55.75
2018-03-01T11:15:28.298Z,56.26
2018-03-01T11:17:58.037Z,55.77
2018-03-01T11:20:25.835Z,54.93
2018-03-01T11:22:53.422Z,56.25
2018-03-01T11:25:21.021Z,55.77
2018-03-01T11:27:48.594Z,56.53
2018-03-01T11:30:16.215Z,56.78
2018-03-01T11:32:43.796Z,55.96
2018-03-01T11:35:13.160Z,55.85
2018-03-01T11:37:40.813Z,54.05
2018-03-01T11:40:09.525Z,55.26
2018-03-01T11:42:37.096Z,55.02
2018-03-01T11:45:08.893Z,54.66
2018-03-01T11:47:36.985Z,54.13
2018-03-01T11:50:04.763Z,54.50
2018-03-01T11:52:32.400Z,53.63
2018-03-01T11:55:00.013Z,54.76
2018-03-01T11:57:35.244Z,54.29
2018-03-01T12:00:02.962Z,53.87
2018-03-01T12:02:30.578Z,53.11
2018-03-01T12:04:58.533Z,53.90
2018-03-01T12:07:27.314Z,52.32
2018-03-01T12:09:54.926Z,52.26
2018-03-01T12:12:23.487Z,50.38
2018-03-01T12:14:51.314Z,48.21
2018-03-01T12:17:18.956Z,45.25
2018-03-01T12:19:46.780Z,43.03
2018-03-01T12:22:14.551Z,41.81
2018-03-01T12:24:42.324Z,43.42
2018-03-01T12:27:10.877Z,46.07
2018-03-01T12:29:38.515Z,45.35
2018-03-01T12:32:06.166Z,48.64
2018-03-01T12:34:33.813Z,50.42
2018-03-01T12:37:01.429Z,53.60
2018-03-01T12:39:31.313Z,52.27
2018-03-01T12:41:58.989Z,48.89
2018-03-01T12:44:29.132Z,47.91
2018-03-01T12:46:56.799Z,46.65
2018-03-01T12:49:28.114Z,47.27
2018-03-01T12:51:57.398Z,46.85
2018-03-01T12:54:25.632Z,45.88
2018-03-01T12:56:53.287Z,47.23
2018-03-01T12:59:21.187Z,48.69
2018-03-01T13:01:49.053Z,49.38
2018-03-01T13:04:19.246Z,48.69
2018-03-01T13:06:46.879Z,49.00
2018-03-01T13:09:15.282Z,47.50
2018-03-01T13:11:42.902Z,46.78
2018-03-01T13:14:10.715Z,47.94
2018-03-01T13:16:38.389Z,48.48
2018-03-01T13:19:06.444Z,48.73
2018-03-01T13:21:34.458Z,50.43
2018-03-01T13:24:02.100Z,49.78
2018-03-01T13:26:29.930Z,49.44
2018-03-01T13:28:57.600Z,47.60
2018-03-01T13:31:30.159Z,45.81
2018-03-01T13:34:00.373Z,44.72
2018-03-01T13:36:28.180Z,45.66
2018-03-01T13:38:55.883Z,48.32
2018-03-01T13:41:28.329Z,49.33
2018-03-01T13:43:56.236Z,52.75
2018-03-01T13:46:28.066Z,52.36
2018-03-01T13:48:55.934Z,54.02
2018-03-01T13:51:24.568Z,52.95
2018-03-01T13:53:52.252Z,54.09
2018-03-01T13:56:19.971Z,53.85
2018-03-01T13:58:47.638Z,55.04
2018-03-01T14:01:16.426Z,53.04
2018-03-01T14:03:44.355Z,53.41
2018-03-01T14:06:15.492Z,52.26
2018-03-01T14:08:44.220Z,52.24
2018-03-01T14:11:13.103Z,51.32
2018-03-01T14:13:42.664Z,48.66
2018-03-01T14:16:10.674Z,48.63
2018-03-01T14:18:43.950Z,49.15
2018-03-01T14:21:17.855Z,52.49
2018-03-01T14:24:07.810Z,55.42
2018-03-01T14:26:40.983Z,57.80
2018-03-01T14:29:11.848Z,59.56
2018-03-01T14:31:39.531Z,59.71
2018-03-01T14:34:07.389Z,60.13
2018-03-01T14:36:34.997Z,59.33
2018-03-01T14:39:02.663Z,59.17
2018-03-01T14:41:31.684Z,58.55
2018-03-01T14:43:59.281Z,57.86
2018-03-01T14:46:30.628Z,58.10
2018-03-01T14:48:58.207Z,59.28
2018-03-01T14:51:25.786Z,59.97
2018-03-01T14:53:53.368Z,60.90
2018-03-01T14:56:21.056Z,61.24
2018-03-01T14:58:48.676Z,60.84
2018-03-01T15:01:16.341Z,60.97
2018-03-01T15:03:46.773Z,62.05
2018-03-01T15:06:14.379Z,62.12
2018-03-01T15:08:42.016Z,63.06
2018-03-01T15:11:11.282Z,63.48
2018-03-01T15:13:40.032Z,64.53
2018-03-01T15:16:08.091Z,63.53
2018-03-01T15:18:35.878Z,64.06
2018-03-01T15:21:03.506Z,64.17
2018-03-01T15:23:31.711Z,64.46
2018-03-01T15:26:02.119Z,64.17
2018-03-01T15:28:29.744Z,65.00
2018-03-01T15:30:57.923Z,65.88
2018-03-01T15:33:29.488Z,67.04
2018-03-01T15:35:59.858Z,66.68
2018-03-01T15:38:27.550Z,66.70
2018-03-01T15:40:55.177Z,66.74
2018-03-01T15:43:24.384Z,67.36
2018-03-01T15:45:52.128Z,67.79
2018-03-01T15:48:19.769Z,68.05
2018-03-01T15:50:47.525Z,67.69
2018-03-01T15:53:15.133Z,67.99
2018-03-01T15:55:42.870Z,68.23
2018-03-01T15:58:16.167Z,67.83
2018-03-01T16:00:45.555Z,68.81
2018-03-01T16:03:13.357Z,68.95
2018-03-01T16:05:41.000Z,68.70
2018-03-01T16:08:08.581Z,68.73
2018-03-01T16:10:36.201Z,69.53
2018-03-01T16:13:03.784Z,69.39
2018-03-01T16:15:31.342Z,69.19
2018-03-01T16:17:58.913Z,69.46
2018-03-01T16:20:26.504Z,69.99
2018-03-01T16:22:54.142Z,70.04
2018-03-01T16:25:21.815Z,70.34
2018-03-01T16:27:49.442Z,70.51
2018-03-01T16:30:17.071Z,70.97
2018-03-01T16:32:44.637Z,70.78
2018-03-01T16:35:13.130Z,70.44
2018-03-01T16:37:41.101Z,70.62
2018-03-01T16:40:08.770Z,70.50
2018-03-01T16:42:37.293Z,71.07
2018-03-01T16:45:05.368Z,71.84
2018-03-01T16:47:33.479Z,71.57
2018-03-01T16:50:01.091Z,71.94
2018-03-01T16:52:28.680Z,71.58
2018-03-01T16:54:56.273Z,71.88
2018-03-01T16:57:24.060Z,71.83
2018-03-01T16:59:51.643Z,71.92
2018-03-01T17:02:19.284Z,71.96
2018-03-01T17:04:46.847Z,72.32
2018-03-01T17:07:14.409Z,72.29
2018-03-01T17:09:42.003Z,72.60
2018-03-01T17:12:09.621Z,72.69
2018-03-01T17:14:37.271Z,72.55
2018-03-01T17:17:05.065Z,72.41
2018-03-01T17:19:32.657Z,72.82
2018-03-01T17:22:00.252Z,72.85
2018-03-01T17:24:27.891Z,72.82
2018-03-01T17:26:55.486Z,72.59
2018-03-01T17:29:24.087Z,73.13
2018-03-01T17:31:51.690Z,72.63
2018-03-01T17:34:19.298Z,72.09
2018-03-01T17:36:46.906Z,72.46
2018-03-01T17:39:15.016Z,73.40
2018-03-01T17:41:42.705Z,73.08
2018-03-01T17:44:10.309Z,72.73
2018-03-01T17:46:37.912Z,72.58
2018-03-01T17:49:05.638Z,73.03
2018-03-01T17:51:33.410Z,72.77
2018-03-01T17:54:01.122Z,72.87
2018-03-01T17:56:28.948Z,73.18
2018-03-01T17:58:56.615Z,73.68
2018-03-01T18:01:24.221Z,73.68
2018-03-01T18:03:51.782Z,74.11
2018-03-01T18:06:19.593Z,73.92
2018-03-01T18:08:47.307Z,74.21
2018-03-01T18:11:15.351Z,73.60
2018-03-01T18:13:43.819Z,73.83
2018-03-01T18:16:11.511Z,74.54
2018-03-01T18:18:39.110Z,74.11
2018-03-01T18:21:07.115Z,74.43
2018-03-01T18:23:35.163Z,74.64
2018-03-01T18:26:02.768Z,74.95
2018-03-01T18:28:30.427Z,74.75
2018-03-01T18:30:58.349Z,74.80
2018-03-01T18:33:26.237Z,75.10
2018-03-01T18:35:54.103Z,74.85
2018-03-01T18:38:22.708Z,74.92
2018-03-01T18:40:50.353Z,74.46
2018-03-01T18:43:18.261Z,74.63
2018-03-01T18:45:45.873Z,75.04
2018-03-01T18:48:13.491Z,74.81
2018-03-01T18:50:41.123Z,75.58
2018-03-01T18:53:08.892Z,75.74
2018-03-01T18:55:37.380Z,75.54
2018-03-01T18:58:05.030Z,75.56
2018-03-01T19:00:32.657Z,75.71
2018-03-01T19:03:00.246Z,75.98
2018-03-01T19:05:28.083Z,76.00
2018-03-01T19:07:55.720Z,75.58
2018-03-01T19:10:23.282Z,76.09
2018-03-01T19:12:50.852Z,76.79
2018-03-01T19:15:19.972Z,76.53
2018-03-01T19:17:47.851Z,76.89
2018-03-01T19:20:15.506Z,76.96
2018-03-01T19:22:43.096Z,76.64
2018-03-01T19:25:10.768Z,77.15
2018-03-01T19:27:43.406Z,77.36
2018-03-01T19:30:16.324Z,77.36
2018-03-01T19:32:44.060Z,77.63
2018-03-01T19:35:12.720Z,78.16
2018-03-01T19:37:40.312Z,77.95
2018-03-01T19:40:07.945Z,77.97
2018-03-01T19:42:36.228Z,77.48
2018-03-01T19:45:04.985Z,77.76
2018-03-01T19:47:32.665Z,77.92
2018-03-01T19:50:04.758Z,77.84
2018-03-01T19:52:41.659Z,77.90
2018-03-01T19:55:09.806Z,78.49
2018-03-01T19:57:37.599Z,79.20
2018-03-01T20:00:08.071Z,79.39
2018-03-01T20:02:35.711Z,79.80
2018-03-01T20:05:03.344Z,79.57
2018-03-01T20:07:31.119Z,79.43
2018-03-01T20:09:58.728Z,79.17
2018-03-01T20:12:26.334Z,79.28
2018-03-01T20:14:53.944Z,79.19
2018-03-01T20:17:21.581Z,79.63
2018-03-01T20:19:49.244Z,79.75
2018-03-01T20:22:16.859Z,79.43
2018-03-01T20:24:44.481Z,79.68
2018-03-01T20:27:13.976Z,79.66
2018-03-01T20:29:41.650Z,79.54
2018-03-01T20:32:09.302Z,79.42
2018-03-01T20:34:36.995Z,79.32
2018-03-01T20:37:04.843Z,79.85
2018-03-01T20:39:33.256Z,79.79
2018-03-01T20:42:02.210Z,80.01
2018-03-01T20:44:29.963Z,80.11
2018-03-01T20:46:57.549Z,80.19
2018-03-01T20:49:25.702Z,79.82
2018-03-01T20:51:53.369Z,79.85
2018-03-01T20:54:22.199Z,79.88
2018-03-01T20:56:49.865Z,79.70
2018-03-01T20:59:17.711Z,79.78
2018-03-01T21:01:45.437Z,79.78
2018-03-01T21:04:13.119Z,80.33
2018-03-01T21:06:40.740Z,80.33
2018-03-01T21:09:08.872Z,80.69
2018-03-01T21:11:36.496Z,80.96
2018-03-01T21:14:04.080Z,81.07
2018-03-01T21:16:31.748Z,81.17
2018-03-01T21:18:59.367Z,81.22
2018-03-01T21:21:27.268Z,81.09
2018-03-01T21:23:54.954Z,81.05
2018-03-01T21:26:24.423Z,80.75
2018-03-01T21:28:52.045Z,80.50
2018-03-01T21:31:19.864Z,80.53
2018-03-01T21:33:47.613Z,80.86
2018-03-01T21:36:15.265Z,80.62
2018-03-01T21:38:42.901Z,80.93
2018-03-01T21:41:10.909Z,80.85
2018-03-01T21:43:38.543Z,81.18
2018-03-01T21:46:06.136Z,81.17
2018-03-01T21:48:33.797Z,81.53
2018-03-01T21:51:01.435Z,81.48
2018-03-01T21:53:30.527Z,80.65
2018-03-01T21:55:58.408Z,80.88
2018-03-01T21:58:26.063Z,80.85
2018-03-01T22:00:53.636Z,81.68
2018-03-01T22:03:21.311Z,82.07
2018-03-01T22:05:49.001Z,82.18
2018-03-01T22:08:16.655Z,81.12
2018-03-01T22:10:44.365Z,81.42
2018-03-01T22:13:12.331Z,80.79
2018-03-01T22:15:40.395Z,81.42
2018-03-01T22:18:08.434Z,80.95
2018-03-01T22:20:36.145Z,81.88
2018-03-01T22:23:03.923Z,81.60
2018-03-01T22:25:31.790Z,81.53
2018-03-01T22:27:59.740Z,81.72
2018-03-01T22:30:27.661Z,81.90
2018-03-01T22:32:55.484Z,81.50
2018-03-01T22:35:23.174Z,81.42
2018-03-01T22:37:50.814Z,81.39
2018-03-01T22:40:18.506Z,81.35
2018-03-01T22:42:46.117Z,81.19
2018-03-01T22:45:13.778Z,81.03
2018-03-01T22:47:41.350Z,81.39
2018-03-01T22:50:09.044Z,81.56
2018-03-01T22:52:36.608Z,81.45
2018-03-01T22:55:04.416Z,81.55
2018-03-01T22:57:32.125Z,81.66
2018-03-01T22:59:59.732Z,81.36
2018-03-01T23:02:27.667Z,81.00
2018-03-01T23:04:59.956Z,81.25
2018-03-01T23:07:27.768Z,81.17
2018-03-01T23:09:55.414Z,81.03
2018-03-01T23:12:27.689Z,81.12
2018-03-01T23:14:56.800Z,81.18
2018-03-01T23:17:24.719Z,81.33
2018-03-01T23:19:52.326Z,81.31
2018-03-01T23:22:19.916Z,81.27
2018-03-01T23:24:47.671Z,81.00
2018-03-01T23:27:16.576Z,81.09
2018-03-01T23:29:45.064Z,81.12
2018-03-01T23:32:12.756Z,81.09
2018-03-01T23:34:40.434Z,81.29
2018-03-01T23:37:10.431Z,81.21
2018-03-01T23:39:38.338Z,81.48
2018-03-01T23:42:06.255Z,81.65
2018-03-01T23:44:33.895Z,81.47
2018-03-01T23:47:01.482Z,81.72
2018-03-01T23:49:29.409Z,81.83
2018-03-01T23:51:57.218Z,82.05
2018-03-01T23:54:24.821Z,81.52
2018-03-01T23:56:52.399Z,81.63
2018-03-01T23:59:23.272Z,81.73
